Time;durP1;ratioP1;P1;durP2;ratioP2;P2;SDS_P1;SDS_P2;PMS_P1;PMS_P2;Temp;Humidity;BMP_temperature;BMP_pressure;BME280_temperature;BME280_humidity;BME280_pressure;Samples;Min_cycle;Max_cycle;Signal;HPM_P1;HPM_P2
2022/07/01 07:02:02;;;;;;;14.27;9.10;;;;;;;;;;12140902;22;18143411;-86
2022/07/01 07:07:12;;;;;;;8.15;7.28;;;;;;;;;;12891957;23;20012;-84
2022/07/01 07:12:14;;;;;;;6.93;6.20;;;;;;;;;;12881004;23;19997;-84
2022/07/01 07:17:19;;;;;;;7.53;6.55;;;;;;;;;;12881487;23;20008;-84
2022/07/01 07:22:26;;;;;;;7.05;6.40;;;;;;;;;;12905411;22;20016;-83
2022/07/01 07:27:41;;;;;;;5.97;4.88;;;;;;;;;;12878576;23;20022;-83
2022/07/01 07:32:42;;;;;;;6.55;5.25;;;;;;;;;;12878112;23;20028;-83
2022/07/01 07:37:44;;;;;;;7.72;7.03;;;;;;;;;;12877098;23;20005;-83
2022/07/01 07:42:51;;;;;;;6.45;5.85;;;;;;;;;;12876522;23;20015;-84
2022/07/01 07:47:57;;;;;;;8.10;6.57;;;;;;;;;;12877165;23;20076;-83
2022/07/01 07:52:59;;;;;;;6.35;5.75;;;;;;;;;;12875233;23;20012;-83
2022/07/01 07:58:21;;;;;;;8.38;7.43;;;;;;;;;;12877169;23;20032;-83
2022/07/01 08:03:40;;;;;;;7.50;6.45;;;;;;;;;;12804922;23;20020;-84
2022/07/01 08:08:52;;;;;;;7.82;6.03;;;;;;;;;;12815352;23;20009;-84
2022/07/01 08:13:57;;;;;;;8.25;7.22;;;;;;;;;;12813671;23;20001;-83
2022/07/01 08:18:58;;;;;;;7.97;7.22;;;;;;;;;;12787621;23;20013;-84
2022/07/01 08:24:12;;;;;;;10.60;9.35;;;;;;;;;;12856729;23;20039;-83
2022/07/01 08:29:13;;;;;;;8.07;7.38;;;;;;;;;;12878320;23;20441;-83
2022/07/01 08:34:15;;;;;;;8.77;7.97;;;;;;;;;;12883423;23;19996;-82
2022/07/01 08:39:16;;;;;;;9.55;7.75;;;;;;;;;;12880717;23;20012;-82
2022/07/01 08:44:21;;;;;;;7.75;6.78;;;;;;;;;;12881438;23;20015;-82
2022/07/01 08:49:22;;;;;;;9.20;7.32;;;;;;;;;;12877055;23;20005;-82
2022/07/01 08:54:23;;;;;;;7.40;6.70;;;;;;;;;;12878305;23;20035;-81
2022/07/01 08:59:25;;;;;;;8.15;6.55;;;;;;;;;;12883697;23;20004;-83
2022/07/01 09:04:27;;;;;;;7.63;6.53;;;;;;;;;;12876848;23;20027;-82
2022/07/01 09:09:28;;;;;;;8.45;7.32;;;;;;;;;;12882157;23;20384;-83
2022/07/01 09:14:30;;;;;;;8.43;7.10;;;;;;;;;;12874625;23;20012;-82
2022/07/01 09:19:36;;;;;;;4.78;4.30;;;;;;;;;;12891661;22;19997;-79
2022/07/01 09:24:42;;;;;;;6.90;4.63;;;;;;;;;;12888471;23;20056;-82
2022/07/01 09:29:59;;;;;;;6.30;4.05;;;;;;;;;;12874365;23;20009;-82
2022/07/01 09:35:09;;;;;;;5.15;3.42;;;;;;;;;;12873410;23;20004;-82
2022/07/01 09:40:10;;;;;;;5.03;4.53;;;;;;;;;;12877170;23;20007;-82
2022/07/01 09:45:21;;;;;;;4.35;3.95;;;;;;;;;;12875637;23;20059;-84
2022/07/01 09:50:23;;;;;;;4.90;3.70;;;;;;;;;;12876103;23;20009;-82
2022/07/01 09:55:25;;;;;;;4.43;2.50;;;;;;;;;;12875450;23;20039;-83
2022/07/01 10:00:36;;;;;;;5.97;4.30;;;;;;;;;;12872588;23;20008;-83
2022/07/01 10:05:51;;;;;;;4.00;3.60;;;;;;;;;;12874899;23;20353;-84
2022/07/01 10:11:13;;;;;;;5.22;3.00;;;;;;;;;;12875962;23;20035;-87
2022/07/01 10:16:23;;;;;;;4.95;3.65;;;;;;;;;;12876989;23;20005;-82
2022/07/01 10:21:31;;;;;;;7.38;3.38;;;;;;;;;;12877660;23;20013;-82
2022/07/01 10:26:32;;;;;;;5.00;2.55;;;;;;;;;;12872975;23;20012;-82
2022/07/01 10:31:42;;;;;;;4.53;2.80;;;;;;;;;;12851624;23;20012;-82
2022/07/01 10:36:43;;;;;;;3.43;2.73;;;;;;;;;;12873423;23;20005;-82
2022/07/01 10:41:53;;;;;;;5.03;3.13;;;;;;;;;;12875585;23;20016;-82
2022/07/01 10:46:57;;;;;;;;;;;;;;;;;;12883949;23;20074;-82
2022/07/01 10:52:08;;;;;;;4.60;3.42;;;;;;;;;;12884424;23;19908;-82
2022/07/01 10:57:20;;;;;;;3.63;2.40;;;;;;;;;;12879215;23;20007;-82
2022/07/01 11:02:23;;;;;;;6.80;2.70;;;;;;;;;;12874771;23;20051;-82
2022/07/01 11:07:26;;;;;;;5.18;3.45;;;;;;;;;;12880783;23;20028;-81
2022/07/01 11:18:14;;;;;;;4.57;2.38;;;;;;;;;;12872494;23;20445;-82
2022/07/01 11:23:20;;;;;;;3.40;2.00;;;;;;;;;;12905537;22;20016;-82
2022/07/01 11:28:31;;;;;;;3.05;1.20;;;;;;;;;;12881553;23;20001;-83
2022/07/01 11:33:54;;;;;;;3.70;1.65;;;;;;;;;;12894541;23;20008;-83
2022/07/01 11:44:30;;;;;;;2.92;1.60;;;;;;;;;;12881106;23;20028;-83
2022/07/01 11:49:32;;;;;;;2.28;1.38;;;;;;;;;;12879114;23;20005;-84
2022/07/01 11:54:54;;;;;;;3.90;2.30;;;;;;;;;;12879794;23;20007;-84
2022/07/01 12:00:17;;;;;;;2.20;1.30;;;;;;;;;;12882329;23;20496;-84
2022/07/01 12:05:24;;;;;;;2.85;1.52;;;;;;;;;;12882261;23;20016;-83
2022/07/01 12:10:34;;;;;;;2.72;1.60;;;;;;;;;;12879425;23;20044;-84
2022/07/01 12:15:35;;;;;;;5.38;2.20;;;;;;;;;;12879427;22;20031;-81
2022/07/01 12:20:37;;;;;;;3.92;1.60;;;;;;;;;;12887973;23;20055;-82
2022/07/01 12:25:46;;;;;;;4.72;2.20;;;;;;;;;;12891178;23;20016;-83
2022/07/01 12:31:01;;;;;;;4.60;2.50;;;;;;;;;;12885890;23;20052;-83
2022/07/01 12:36:44;;;;;;;3.00;1.60;;;;;;;;;;12880667;23;20345;-81
2022/07/01 18:01:41;;;;;;;3.33;1.42;;;;;;;;;;13012072;22;20035;-82
